sensor_id;sensor_type;location;lat;lon;timestamp;pressure;altitude;pressure_sealevel;temperature;humidity
9893;BME280;4985;49.092;8.542;2022-11-23T00:01:37;97989.53;;;14.14;53.93
9893;BME280;4985;49.092;8.542;2022-11-23T00:04:08;97986.09;;;14.13;53.94
9893;BME280;4985;49.092;8.542;2022-11-23T00:06:35;97982.63;;;14.13;53.94
9893;BME280;4985;49.092;8.542;2022-11-23T00:09:02;97984.69;;;14.11;53.96
9893;BME280;4985;49.092;8.542;2022-11-23T00:11:29;97973.87;;;14.12;53.95
9893;BME280;4985;49.092;8.542;2022-11-23T00:13:57;97965.13;;;14.12;53.94
9893;BME280;4985;49.092;8.542;2022-11-23T00:16:25;97971.22;;;14.12;53.93
9893;BME280;4985;49.092;8.542;2022-11-23T00:18:55;97963.53;;;14.11;53.95
9893;BME280;4985;49.092;8.542;2022-11-23T00:21:24;97965.13;;;14.12;53.95
9893;BME280;4985;49.092;8.542;2022-11-23T00:23:51;97967.78;;;14.12;53.95
9893;BME280;4985;49.092;8.542;2022-11-23T00:26:18;97968.81;;;14.11;53.96
9893;BME280;4985;49.092;8.542;2022-11-23T00:28:45;97971.47;;;14.11;53.95
9893;BME280;4985;49.092;8.542;2022-11-23T00:31:13;97979.41;;;14.11;53.93
9893;BME280;4985;49.092;8.542;2022-11-23T00:33:41;97974.09;;;14.11;53.94
9893;BME280;4985;49.092;8.542;2022-11-23T00:36:10;97968.81;;;14.11;53.96
9893;BME280;4985;49.092;8.542;2022-11-23T00:38:41;97979.41;;;14.11;53.96
9893;BME280;4985;49.092;8.542;2022-11-23T00:41:10;97978.81;;;14.09;53.99
9893;BME280;4985;49.092;8.542;2022-11-23T00:43:37;97975.34;;;14.08;53.99
9893;BME280;4985;49.092;8.542;2022-11-23T00:46:05;97976.16;;;14.09;54.01
9893;BME280;4985;49.092;8.542;2022-11-23T00:48:32;97974.53;;;14.08;54.01
9893;BME280;4985;49.092;8.542;2022-11-23T00:50:59;97976.97;;;14.09;53.99
9893;BME280;4985;49.092;8.542;2022-11-23T00:53:28;97971.91;;;14.08;53.99
9893;BME280;4985;49.092;8.542;2022-11-23T00:55:55;97968.22;;;14.09;54.01
9893;BME280;4985;49.092;8.542;2022-11-23T00:58:22;97970.06;;;14.08;54.01
9893;BME280;4985;49.092;8.542;2022-11-23T01:00:49;97971.09;;;14.07;54.01
9893;BME280;4985;49.092;8.542;2022-11-23T01:03:16;97969.25;;;14.08;54.01
9893;BME280;4985;49.092;8.542;2022-11-23T01:05:42;97967.41;;;14.08;53.98
9893;BME280;4985;49.092;8.542;2022-11-23T01:08:09;97974.53;;;14.08;53.98
9893;BME280;4985;49.092;8.542;2022-11-23T01:10:37;97969.25;;;14.08;53.97
9893;BME280;4985;49.092;8.542;2022-11-23T01:13:03;97970.06;;;14.08;53.99
9893;BME280;4985;49.092;8.542;2022-11-23T01:15:31;97961.53;;;14.06;53.98
9893;BME280;4985;49.092;8.542;2022-11-23T01:17:58;97966.22;;;14.04;54.00
9893;BME280;4985;49.092;8.542;2022-11-23T01:20:25;97974.53;;;14.08;53.99
9893;BME280;4985;49.092;8.542;2022-11-23T01:22:51;97967.63;;;14.07;53.99
9893;BME280;4985;49.092;8.542;2022-11-23T01:25:18;97967.63;;;14.07;53.99
9893;BME280;4985;49.092;8.542;2022-11-23T01:27:46;97975.56;;;14.07;53.99
9893;BME280;4985;49.092;8.542;2022-11-23T01:30:13;97975.56;;;14.07;53.97
9893;BME280;4985;49.092;8.542;2022-11-23T01:32:39;97979.25;;;14.06;54.00
9893;BME280;4985;49.092;8.542;2022-11-23T01:35:07;97984.53;;;14.06;54.03
9893;BME280;4985;49.092;8.542;2022-11-23T01:37:33;97979.25;;;14.06;54.02
9893;BME280;4985;49.092;8.542;2022-11-23T01:40:00;97980.06;;;14.06;54.00
9893;BME280;4985;49.092;8.542;2022-11-23T01:42:39;97981.91;;;14.06;54.02
9893;BME280;4985;49.092;8.542;2022-11-23T01:45:33;97981.09;;;14.05;54.01
9893;BME280;4985;49.092;8.542;2022-11-23T01:48:00;97981.09;;;14.05;54.00
9893;BME280;4985;49.092;8.542;2022-11-23T01:50:29;97980.28;;;14.05;54.00
9893;BME280;4985;49.092;8.542;2022-11-23T01:52:55;97983.91;;;14.04;54.02
9893;BME280;4985;49.092;8.542;2022-11-23T01:55:26;97991.66;;;14.05;54.02
9893;BME280;4985;49.092;8.542;2022-11-23T01:57:53;97993.69;;;14.03;54.01
9893;BME280;4985;49.092;8.542;2022-11-23T02:00:20;97988.41;;;14.03;54.02
9893;BME280;4985;49.092;8.542;2022-11-23T02:02:52;97987.38;;;14.04;54.02
9893;BME280;4985;49.092;8.542;2022-11-23T02:05:22;97991.06;;;14.03;54.01
9893;BME280;4985;49.092;8.542;2022-11-23T02:07:51;97984.38;;;14.01;54.02
9893;BME280;4985;49.092;8.542;2022-11-23T02:10:18;97991.06;;;14.03;54.00
9893;BME280;4985;49.092;8.542;2022-11-23T02:12:47;97990.25;;;14.03;54.02
9893;BME280;4985;49.092;8.542;2022-11-23T02:15:13;98001.84;;;14.02;54.03
9893;BME280;4985;49.092;8.542;2022-11-23T02:17:42;97996.56;;;14.02;54.03
9893;BME280;4985;49.092;8.542;2022-11-23T02:20:12;97996.56;;;14.02;54.03
9893;BME280;4985;49.092;8.542;2022-11-23T02:22:47;97995.75;;;14.01;54.03
9893;BME280;4985;49.092;8.542;2022-11-23T02:25:24;97996.56;;;14.02;54.01
9893;BME280;4985;49.092;8.542;2022-11-23T02:27:56;97996.56;;;14.02;54.01
9893;BME280;4985;49.092;8.542;2022-11-23T02:30:23;98001.03;;;14.01;54.03
9893;BME280;4985;49.092;8.542;2022-11-23T02:32:50;98012.44;;;14.02;54.02
9893;BME280;4985;49.092;8.542;2022-11-23T02:35:19;98005.53;;;14.01;54.04
9893;BME280;4985;49.092;8.542;2022-11-23T02:37:45;97997.81;;;13.99;54.03
9893;BME280;4985;49.092;8.542;2022-11-23T02:40:22;98013.47;;;14.01;54.04
9893;BME280;4985;49.092;8.542;2022-11-23T02:42:50;98009.19;;;13.99;54.04
9893;BME280;4985;49.092;8.542;2022-11-23T02:45:25;98012.44;;;14.02;54.03
9893;BME280;4985;49.092;8.542;2022-11-23T02:47:54;98017.94;;;14.00;54.03
9893;BME280;4985;49.092;8.542;2022-11-23T02:50:21;98014.50;;;13.99;54.02
9893;BME280;4985;49.092;8.542;2022-11-23T02:52:48;98008.41;;;13.99;54.05
9893;BME280;4985;49.092;8.542;2022-11-23T02:55:14;97998.63;;;13.99;54.04
9893;BME280;4985;49.092;8.542;2022-11-23T02:57:41;98005.53;;;14.01;54.02
9893;BME280;4985;49.092;8.542;2022-11-23T03:00:08;97993.34;;;13.99;54.00
9893;BME280;4985;49.092;8.542;2022-11-23T03:02:37;97994.94;;;14.01;53.98
9893;BME280;4985;49.092;8.542;2022-11-23T03:05:04;98002.88;;;14.01;53.96
9893;BME280;4985;49.092;8.542;2022-11-23T03:07:30;98002.66;;;14.02;53.96
9893;BME280;4985;49.092;8.542;2022-11-23T03:09:57;98000.25;;;14.01;53.95
9893;BME280;4985;49.092;8.542;2022-11-23T03:12:26;97994.13;;;14.00;53.97
9893;BME280;4985;49.092;8.542;2022-11-23T03:14:52;97994.94;;;14.01;53.96
9893;BME280;4985;49.092;8.542;2022-11-23T03:17:19;98003.91;;;13.99;53.96
9893;BME280;4985;49.092;8.542;2022-11-23T03:19:47;98003.91;;;13.99;53.98
9893;BME280;4985;49.092;8.542;2022-11-23T03:22:14;97990.09;;;13.97;53.98
9893;BME280;4985;49.092;8.542;2022-11-23T03:24:42;97995.81;;;13.94;53.97
9893;BME280;4985;49.092;8.542;2022-11-23T03:27:08;98005.97;;;13.97;54.01
9893;BME280;4985;49.092;8.542;2022-11-23T03:29:35;98000.69;;;13.97;54.04
9893;BME280;4985;49.092;8.542;2022-11-23T03:32:02;98005.16;;;13.97;54.05
9893;BME280;4985;49.092;8.542;2022-11-23T03:34:29;98002.50;;;13.97;54.04
9893;BME280;4985;49.092;8.542;2022-11-23T03:36:59;97996.41;;;13.96;54.04
9893;BME280;4985;49.092;8.542;2022-11-23T03:39:26;98002.50;;;13.97;54.03
9893;BME280;4985;49.092;8.542;2022-11-23T03:41:52;98006.19;;;13.96;54.03
9893;BME280;4985;49.092;8.542;2022-11-23T03:44:19;98009.66;;;13.96;54.04
9893;BME280;4985;49.092;8.542;2022-11-23T03:46:45;98007.00;;;13.96;54.04
9893;BME280;4985;49.092;8.542;2022-11-23T03:49:14;98002.75;;;13.95;54.06
9893;BME280;4985;49.092;8.542;2022-11-23T03:51:41;98002.75;;;13.95;54.07
9893;BME280;4985;49.092;8.542;2022-11-23T03:54:09;98007.22;;;13.95;54.07
9893;BME280;4985;49.092;8.542;2022-11-23T03:56:35;97994.22;;;13.93;54.08
9893;BME280;4985;49.092;8.542;2022-11-23T03:59:02;97988.91;;;13.93;54.07
9893;BME280;4985;49.092;8.542;2022-11-23T04:01:29;97978.34;;;13.93;54.07
9893;BME280;4985;49.092;8.542;2022-11-23T04:03:55;97974.66;;;13.94;54.05
9893;BME280;4985;49.092;8.542;2022-11-23T04:06:22;97977.31;;;13.94;54.04
9893;BME280;4985;49.092;8.542;2022-11-23T04:08:48;97979.97;;;13.94;54.05
9893;BME280;4985;49.092;8.542;2022-11-23T04:11:16;97985.25;;;13.94;54.04
9893;BME280;4985;49.092;8.542;2022-11-23T04:13:43;97985.25;;;13.94;54.05
9893;BME280;4985;49.092;8.542;2022-11-23T04:16:09;97979.97;;;13.94;54.04
9893;BME280;4985;49.092;8.542;2022-11-23T04:18:36;97988.91;;;13.93;54.05
9893;BME280;4985;49.092;8.542;2022-11-23T04:21:04;97980.75;;;13.95;54.03
9893;BME280;4985;49.092;8.542;2022-11-23T04:23:31;97979.97;;;13.94;54.00
9893;BME280;4985;49.092;8.542;2022-11-23T04:25:58;97978.34;;;13.93;54.01
9893;BME280;4985;49.092;8.542;2022-11-23T04:28:26;97989.72;;;13.94;54.03
9893;BME280;4985;49.092;8.542;2022-11-23T04:30:52;97980.97;;;13.93;54.04
9893;BME280;4985;49.092;8.542;2022-11-23T04:33:19;97979.16;;;13.94;54.02
9893;BME280;4985;49.092;8.542;2022-11-23T04:35:48;97980.16;;;13.93;54.03
9893;BME280;4985;49.092;8.542;2022-11-23T04:38:14;97970.59;;;13.92;54.04
9893;BME280;4985;49.092;8.542;2022-11-23T04:40:41;97977.50;;;13.93;54.02
9893;BME280;4985;49.092;8.542;2022-11-23T04:43:07;97972.22;;;13.93;54.02
9893;BME280;4985;49.092;8.542;2022-11-23T04:45:38;97974.66;;;13.94;54.01
9893;BME280;4985;49.092;8.542;2022-11-23T04:48:05;97971.22;;;13.94;53.98
9893;BME280;4985;49.092;8.542;2022-11-23T04:50:31;97972.00;;;13.94;53.96
9893;BME280;4985;49.092;8.542;2022-11-23T04:52:59;97973.06;;;13.93;53.97
9893;BME280;4985;49.092;8.542;2022-11-23T04:55:26;97974.66;;;13.94;53.96
9893;BME280;4985;49.092;8.542;2022-11-23T04:57:52;97975.69;;;13.93;53.96
9893;BME280;4985;49.092;8.542;2022-11-23T05:00:19;97970.59;;;13.92;53.98
9893;BME280;4985;49.092;8.542;2022-11-23T05:02:47;97972.44;;;13.91;53.98
9893;BME280;4985;49.092;8.542;2022-11-23T05:05:13;97980.38;;;13.91;54.01
9893;BME280;4985;49.092;8.542;2022-11-23T05:07:41;97975.88;;;13.92;53.99
9893;BME280;4985;49.092;8.542;2022-11-23T05:10:08;97973.25;;;13.92;53.99
9893;BME280;4985;49.092;8.542;2022-11-23T05:12:35;97990.94;;;13.91;54.03
9893;BME280;4985;49.092;8.542;2022-11-23T05:15:02;97977.12;;;13.89;54.04
9893;BME280;4985;49.092;8.542;2022-11-23T05:17:29;97973.47;;;13.90;54.03
9893;BME280;4985;49.092;8.542;2022-11-23T05:19:59;97973.47;;;13.90;54.05
9893;BME280;4985;49.092;8.542;2022-11-23T05:22:26;97974.25;;;13.91;54.04
9893;BME280;4985;49.092;8.542;2022-11-23T05:24:52;97974.47;;;13.89;54.04
9893;BME280;4985;49.092;8.542;2022-11-23T05:27:20;97974.47;;;13.89;54.05
9893;BME280;4985;49.092;8.542;2022-11-23T05:29:47;97980.00;;;13.88;54.07
9893;BME280;4985;49.092;8.542;2022-11-23T05:32:13;97983.44;;;13.88;54.06
9893;BME280;4985;49.092;8.542;2022-11-23T05:34:40;97972.66;;;13.90;54.06
9893;BME280;4985;49.092;8.542;2022-11-23T05:37:08;97980.81;;;13.88;54.06
9893;BME280;4985;49.092;8.542;2022-11-23T05:39:34;97986.09;;;13.88;54.06
9893;BME280;4985;49.092;8.542;2022-11-23T05:42:01;97974.72;;;13.88;54.05
9893;BME280;4985;49.092;8.542;2022-11-23T05:44:27;97972.06;;;13.88;54.05
9893;BME280;4985;49.092;8.542;2022-11-23T05:46:54;97962.56;;;13.80;54.07
9893;BME280;4985;49.092;8.542;2022-11-23T05:49:20;97968.59;;;13.87;54.06
9893;BME280;4985;49.092;8.542;2022-11-23T05:51:50;97974.72;;;13.88;54.07
9893;BME280;4985;49.092;8.542;2022-11-23T05:54:18;97973.91;;;13.87;54.08
9893;BME280;4985;49.092;8.542;2022-11-23T05:56:44;97973.91;;;13.87;54.07
9893;BME280;4985;49.092;8.542;2022-11-23T05:59:11;97973.09;;;13.87;54.08
9893;BME280;4985;49.092;8.542;2022-11-23T06:01:37;97976.75;;;13.86;54.08
9893;BME280;4985;49.092;8.542;2022-11-23T06:04:04;97985.50;;;13.86;54.09
9893;BME280;4985;49.092;8.542;2022-11-23T06:06:31;97982.06;;;13.86;54.09
9893;BME280;4985;49.092;8.542;2022-11-23T06:09:01;97976.75;;;13.86;54.08
9893;BME280;4985;49.092;8.542;2022-11-23T06:11:29;97988.97;;;13.87;54.07
9893;BME280;4985;49.092;8.542;2022-11-23T06:13:56;97997.13;;;13.85;54.08
9893;BME280;4985;49.092;8.542;2022-11-23T06:16:23;97990.22;;;13.84;54.11
9893;BME280;4985;49.092;8.542;2022-11-23T06:18:49;97991.81;;;13.85;54.10
9893;BME280;4985;49.092;8.542;2022-11-23T06:21:16;97999.75;;;13.85;54.09
9893;BME280;4985;49.092;8.542;2022-11-23T06:23:43;97991.81;;;13.85;54.08
9893;BME280;4985;49.092;8.542;2022-11-23T06:26:11;97991.81;;;13.85;54.08
9893;BME280;4985;49.092;8.542;2022-11-23T06:28:47;97990.22;;;13.84;54.09
9893;BME280;4985;49.092;8.542;2022-11-23T06:31:13;97989.41;;;13.84;54.11
9893;BME280;4985;49.092;8.542;2022-11-23T06:33:40;97995.50;;;13.84;54.11
9893;BME280;4985;49.092;8.542;2022-11-23T06:36:08;97997.13;;;13.85;54.11
9893;BME280;4985;49.092;8.542;2022-11-23T06:38:35;97990.22;;;13.84;54.11
9893;BME280;4985;49.092;8.542;2022-11-23T06:41:02;97990.22;;;13.84;54.11
9893;BME280;4985;49.092;8.542;2022-11-23T06:43:29;97992.84;;;13.84;54.09
9893;BME280;4985;49.092;8.542;2022-11-23T06:45:57;97992.84;;;13.84;54.09
9893;BME280;4985;49.092;8.542;2022-11-23T06:48:24;97993.88;;;13.83;54.11
9893;BME280;4985;49.092;8.542;2022-11-23T06:50:50;98001.81;;;13.83;54.11
9893;BME280;4985;49.092;8.542;2022-11-23T06:53:17;97992.88;;;13.78;54.12
9893;BME280;4985;49.092;8.542;2022-11-23T06:55:44;97995.91;;;13.81;54.13
9893;BME280;4985;49.092;8.542;2022-11-23T06:58:10;97998.53;;;13.81;54.12
9893;BME280;4985;49.092;8.542;2022-11-23T07:00:37;97998.53;;;13.81;54.13
9893;BME280;4985;49.092;8.542;2022-11-23T07:03:17;98002.03;;;13.82;54.12
9893;BME280;4985;49.092;8.542;2022-11-23T07:05:44;98001.19;;;13.81;54.12
9893;BME280;4985;49.092;8.542;2022-11-23T07:08:10;98006.47;;;13.81;54.11
9893;BME280;4985;49.092;8.542;2022-11-23T07:10:37;98008.94;;;13.83;54.10
9893;BME280;4985;49.092;8.542;2022-11-23T07:13:04;98010.97;;;13.81;54.11
9893;BME280;4985;49.092;8.542;2022-11-23T07:15:31;98011.78;;;13.81;54.10
9893;BME280;4985;49.092;8.542;2022-11-23T07:17:57;98010.97;;;13.81;54.10
9893;BME280;4985;49.092;8.542;2022-11-23T07:20:25;98016.25;;;13.81;54.11
9893;BME280;4985;49.092;8.542;2022-11-23T07:22:58;98012.00;;;13.80;54.14
9893;BME280;4985;49.092;8.542;2022-11-23T07:25:25;98019.94;;;13.80;54.15
9893;BME280;4985;49.092;8.542;2022-11-23T07:27:56;98015.44;;;13.80;54.13
9893;BME280;4985;49.092;8.542;2022-11-23T07:30:23;98019.13;;;13.79;54.12
9893;BME280;4985;49.092;8.542;2022-11-23T07:32:50;98013.81;;;13.79;54.11
9893;BME280;4985;49.092;8.542;2022-11-23T07:35:21;98019.94;;;13.80;54.12
9893;BME280;4985;49.092;8.542;2022-11-23T07:37:49;98013.03;;;13.79;54.12
9893;BME280;4985;49.092;8.542;2022-11-23T07:40:15;98017.50;;;13.78;54.12
9893;BME280;4985;49.092;8.542;2022-11-23T07:42:43;98015.66;;;13.79;54.11
9893;BME280;4985;49.092;8.542;2022-11-23T07:45:10;98019.13;;;13.79;54.11
9893;BME280;4985;49.092;8.542;2022-11-23T07:47:38;98022.78;;;13.78;54.15
9893;BME280;4985;49.092;8.542;2022-11-23T07:50:07;98021.97;;;13.78;54.15
9893;BME280;4985;49.092;8.542;2022-11-23T07:52:34;98024.63;;;13.78;54.15
9893;BME280;4985;49.092;8.542;2022-11-23T07:55:07;98023.00;;;13.77;54.17
9893;BME280;4985;49.092;8.542;2022-11-23T07:57:33;98015.88;;;13.77;54.17
9893;BME280;4985;49.092;8.542;2022-11-23T08:00:00;98030.12;;;13.76;54.16
9893;BME280;4985;49.092;8.542;2022-11-23T08:02:27;98024.03;;;13.76;54.17
9893;BME280;4985;49.092;8.542;2022-11-23T08:04:53;98026.69;;;13.76;54.17
9893;BME280;4985;49.092;8.542;2022-11-23T08:07:20;98024.03;;;13.76;54.17
9893;BME280;4985;49.092;8.542;2022-11-23T08:09:46;98021.97;;;13.78;54.17
9893;BME280;4985;49.092;8.542;2022-11-23T08:12:17;98024.84;;;13.76;54.17
9893;BME280;4985;49.092;8.542;2022-11-23T08:14:44;98018.75;;;13.76;54.17
9893;BME280;4985;49.092;8.542;2022-11-23T08:17:10;98027.50;;;13.76;54.16
9893;BME280;4985;49.092;8.542;2022-11-23T08:19:39;98022.19;;;13.76;54.17
9893;BME280;4985;49.092;8.542;2022-11-23T08:22:05;98016.09;;;13.76;54.17
9893;BME280;4985;49.092;8.542;2022-11-23T08:24:32;98017.13;;;13.75;54.17
9893;BME280;4985;49.092;8.542;2022-11-23T08:26:58;98021.59;;;13.74;54.18
9893;BME280;4985;49.092;8.542;2022-11-23T08:29:28;98017.94;;;13.75;54.17
9893;BME280;4985;49.092;8.542;2022-11-23T08:31:57;98017.13;;;13.75;54.17
9893;BME280;4985;49.092;8.542;2022-11-23T08:34:24;98013.69;;;13.74;54.19
9893;BME280;4985;49.092;8.542;2022-11-23T08:36:50;98012.66;;;13.75;54.18
9893;BME280;4985;49.092;8.542;2022-11-23T08:39:17;98017.34;;;13.73;54.19
9893;BME280;4985;49.092;8.542;2022-11-23T08:41:44;98020.78;;;13.74;54.22
9893;BME280;4985;49.092;8.542;2022-11-23T08:44:11;98021.81;;;13.73;54.23
9893;BME280;4985;49.092;8.542;2022-11-23T08:46:38;98012.06;;;13.73;54.21
9893;BME280;4985;49.092;8.542;2022-11-23T08:49:05;98018.97;;;13.74;54.22
9893;BME280;4985;49.092;8.542;2022-11-23T08:51:32;98017.34;;;13.73;54.20
9893;BME280;4985;49.092;8.542;2022-11-23T08:54:02;98024.25;;;13.74;54.20
9893;BME280;4985;49.092;8.542;2022-11-23T08:56:28;98022.62;;;13.73;54.21
9893;BME280;4985;49.092;8.542;2022-11-23T08:58:55;98013.91;;;13.73;54.22
9893;BME280;4985;49.092;8.542;2022-11-23T09:01:22;98013.91;;;13.73;54.23
9893;BME280;4985;49.092;8.542;2022-11-23T09:03:49;98021.81;;;13.73;54.26
9893;BME280;4985;49.092;8.542;2022-11-23T09:06:16;98018.38;;;13.72;54.24
9893;BME280;4985;49.092;8.542;2022-11-23T09:08:43;98026.09;;;13.74;54.25
9893;BME280;4985;49.092;8.542;2022-11-23T09:11:11;98019.19;;;13.73;54.23
9893;BME280;4985;49.092;8.542;2022-11-23T09:13:39;98021.81;;;13.73;54.23
9893;BME280;4985;49.092;8.542;2022-11-23T09:16:06;98017.56;;;13.72;54.25
9893;BME280;4985;49.092;8.542;2022-11-23T09:18:33;98018.38;;;13.72;54.23
9893;BME280;4985;49.092;8.542;2022-11-23T09:21:03;98015.94;;;13.71;54.27
9893;BME280;4985;49.092;8.542;2022-11-23T09:23:30;98022.22;;;13.69;54.28
9893;BME280;4985;49.092;8.542;2022-11-23T09:25:57;98023.03;;;13.70;54.29
9893;BME280;4985;49.092;8.542;2022-11-23T09:28:24;98025.69;;;13.70;54.32
9893;BME280;4985;49.092;8.542;2022-11-23T09:30:52;98029.34;;;13.69;54.33
9893;BME280;4985;49.092;8.542;2022-11-23T09:33:19;98027.75;;;13.68;54.33
9893;BME280;4985;49.092;8.542;2022-11-23T09:35:46;98026.13;;;13.67;54.37
9893;BME280;4985;49.092;8.542;2022-11-23T09:38:14;98023.47;;;13.67;54.38
9893;BME280;4985;49.092;8.542;2022-11-23T09:40:41;98028.16;;;13.65;54.41
9893;BME280;4985;49.092;8.542;2022-11-23T09:43:21;98033.47;;;13.65;54.41
9893;BME280;4985;49.092;8.542;2022-11-23T09:45:53;98032.44;;;13.66;54.39
9893;BME280;4985;49.092;8.542;2022-11-23T09:48:30;98025.53;;;13.65;54.42
9893;BME280;4985;49.092;8.542;2022-11-23T09:51:04;98026.13;;;13.67;54.38
9893;BME280;4985;49.092;8.542;2022-11-23T09:53:40;98026.94;;;13.67;54.34
9893;BME280;4985;49.092;8.542;2022-11-23T09:56:15;98024.06;;;13.69;54.30
9893;BME280;4985;49.092;8.542;2022-11-23T09:58:43;98015.09;;;13.70;54.28
9893;BME280;4985;49.092;8.542;2022-11-23T10:01:12;98023.03;;;13.70;54.26
9893;BME280;4985;49.092;8.542;2022-11-23T10:03:41;98015.09;;;13.70;54.29
9893;BME280;4985;49.092;8.542;2022-11-23T10:06:16;98010.25;;;13.67;54.34
9893;BME280;4985;49.092;8.542;2022-11-23T10:08:50;98018.78;;;13.69;54.32
9893;BME280;4985;49.092;8.542;2022-11-23T10:11:33;98012.69;;;13.68;54.30
9893;BME280;4985;49.092;8.542;2022-11-23T10:14:12;98006.59;;;13.68;54.31
9893;BME280;4985;49.092;8.542;2022-11-23T10:16:49;98003.72;;;13.69;54.31
9893;BME280;4985;49.092;8.542;2022-11-23T10:19:28;98007.38;;;13.68;54.30
9893;BME280;4985;49.092;8.542;2022-11-23T10:22:04;97998.44;;;13.69;54.30
9893;BME280;4985;49.092;8.542;2022-11-23T10:24:41;98003.72;;;13.69;54.27
9893;BME280;4985;49.092;8.542;2022-11-23T10:27:13;98004.53;;;13.70;54.28
9893;BME280;4985;49.092;8.542;2022-11-23T10:29:41;98005.38;;;13.71;54.29
9893;BME280;4985;49.092;8.542;2022-11-23T10:32:23;97997.63;;;13.69;54.31
9893;BME280;4985;49.092;8.542;2022-11-23T10:34:59;98002.91;;;13.69;54.31
9893;BME280;4985;49.092;8.542;2022-11-23T10:37:27;97999.47;;;13.68;54.31
9893;BME280;4985;49.092;8.542;2022-11-23T10:39:55;97996.22;;;13.66;54.38
9893;BME280;4985;49.092;8.542;2022-11-23T10:42:27;97997.25;;;13.65;54.41
9893;BME280;4985;49.092;8.542;2022-11-23T10:44:56;97999.91;;;13.65;54.42
9893;BME280;4985;49.092;8.542;2022-11-23T10:47:36;97999.69;;;13.67;54.40
9893;BME280;4985;49.092;8.542;2022-11-23T10:50:24;97989.91;;;13.67;54.40
9893;BME280;4985;49.092;8.542;2022-11-23T10:52:53;97984.62;;;13.67;54.37
9893;BME280;4985;49.092;8.542;2022-11-23T10:55:25;97989.53;;;13.64;54.36
9893;BME280;4985;49.092;8.542;2022-11-23T10:57:52;97993.34;;;13.68;54.37
9893;BME280;4985;49.092;8.542;2022-11-23T11:00:24;97993.56;;;13.66;54.40
9893;BME280;4985;49.092;8.542;2022-11-23T11:02:53;97992.78;;;13.66;54.40
9893;BME280;4985;49.092;8.542;2022-11-23T11:05:31;97987.47;;;13.66;54.42
9893;BME280;4985;49.092;8.542;2022-11-23T11:07:59;97980.56;;;13.65;54.44
9893;BME280;4985;49.092;8.542;2022-11-23T11:10:37;97979.53;;;13.66;54.43
9893;BME280;4985;49.092;8.542;2022-11-23T11:13:20;97982.19;;;13.66;54.45
9893;BME280;4985;49.092;8.542;2022-11-23T11:15:51;97973.44;;;13.65;54.44
9893;BME280;4985;49.092;8.542;2022-11-23T11:18:24;97977.50;;;13.68;54.42
9893;BME280;4985;49.092;8.542;2022-11-23T11:20:58;97982.78;;;13.68;54.40
9893;BME280;4985;49.092;8.542;2022-11-23T11:23:25;97963.25;;;13.69;54.37
9893;BME280;4985;49.092;8.542;2022-11-23T11:26:04;97964.84;;;13.70;54.32
9893;BME280;4985;49.092;8.542;2022-11-23T11:28:35;97958.56;;;13.71;54.33
9893;BME280;4985;49.092;8.542;2022-11-23T11:31:15;97954.28;;;13.70;54.37
9893;BME280;4985;49.092;8.542;2022-11-23T11:33:54;97948.41;;;13.68;54.39
9893;BME280;4985;49.092;8.542;2022-11-23T11:36:27;97949.44;;;13.67;54.42
9893;BME280;4985;49.092;8.542;2022-11-23T11:38:55;97937.81;;;13.68;54.42
9893;BME280;4985;49.092;8.542;2022-11-23T11:41:26;97929.91;;;13.68;54.39
9893;BME280;4985;49.092;8.542;2022-11-23T11:43:58;97928.06;;;13.68;54.40
9893;BME280;4985;49.092;8.542;2022-11-23T11:46:35;97929.31;;;13.66;54.45
9893;BME280;4985;49.092;8.542;2022-11-23T11:49:06;97924.03;;;13.66;54.47
9893;BME280;4985;49.092;8.542;2022-11-23T11:51:37;97924.03;;;13.66;54.47
9893;BME280;4985;49.092;8.542;2022-11-23T11:54:16;97916.91;;;13.66;54.46
9893;BME280;4985;49.092;8.542;2022-11-23T11:56:48;97922.78;;;13.68;54.43
9893;BME280;4985;49.092;8.542;2022-11-23T11:59:19;97919.31;;;13.68;54.44
9893;BME280;4985;49.092;8.542;2022-11-23T12:01:54;97907.72;;;13.69;54.42
9893;BME280;4985;49.092;8.542;2022-11-23T12:04:26;97910.97;;;13.71;54.40
9893;BME280;4985;49.092;8.542;2022-11-23T12:07:01;97912.59;;;13.72;54.37
9893;BME280;4985;49.092;8.542;2022-11-23T12:09:31;97909.34;;;13.70;54.33
9893;BME280;4985;49.092;8.542;2022-11-23T12:12:02;97911.97;;;13.70;54.39
9893;BME280;4985;49.092;8.542;2022-11-23T12:14:30;97907.72;;;13.69;54.44
9893;BME280;4985;49.092;8.542;2022-11-23T12:17:00;97911.59;;;13.66;54.49
9893;BME280;4985;49.092;8.542;2022-11-23T12:19:33;97906.53;;;13.65;54.57
9893;BME280;4985;49.092;8.542;2022-11-23T12:25:08;97897.13;;;13.69;54.48
9893;BME280;4985;49.092;8.542;2022-11-23T12:27:42;97905.69;;;13.71;54.45
9893;BME280;4985;49.092;8.542;2022-11-23T12:30:19;97909.12;;;13.72;54.44
9893;BME280;4985;49.092;8.542;2022-11-23T12:32:57;97897.94;;;13.69;54.46
9893;BME280;4985;49.092;8.542;2022-11-23T12:35:47;97903.22;;;13.69;54.52
9893;BME280;4985;49.092;8.542;2022-11-23T12:38:24;97903.03;;;13.71;54.48
9893;BME280;4985;49.092;8.542;2022-11-23T12:41:03;97903.03;;;13.71;54.47
9893;BME280;4985;49.092;8.542;2022-11-23T12:43:43;97895.53;;;13.68;54.53
9893;BME280;4985;49.092;8.542;2022-11-23T12:46:17;97894.50;;;13.69;54.54
9893;BME280;4985;49.092;8.542;2022-11-23T12:48:58;97891.84;;;13.69;54.54
9893;BME280;4985;49.092;8.542;2022-11-23T12:51:35;97891.84;;;13.69;54.54
9893;BME280;4985;49.092;8.542;2022-11-23T12:54:15;97889.59;;;13.73;54.51
9893;BME280;4985;49.092;8.542;2022-11-23T12:56:55;97892.03;;;13.74;54.44
9893;BME280;4985;49.092;8.542;2022-11-23T12:59:30;97874.91;;;13.77;54.40
9893;BME280;4985;49.092;8.542;2022-11-23T13:02:09;97873.06;;;13.77;54.37
9893;BME280;4985;49.092;8.542;2022-11-23T13:04:55;97876.31;;;13.79;54.30
9893;BME280;4985;49.092;8.542;2022-11-23T13:07:50;97878.72;;;13.81;54.26
9893;BME280;4985;49.092;8.542;2022-11-23T13:10:41;97883.00;;;13.82;54.23
9893;BME280;4985;49.092;8.542;2022-11-23T13:13:26;97872.63;;;13.80;54.24
9893;BME280;4985;49.092;8.542;2022-11-23T13:16:22;97868.38;;;13.79;54.29
9893;BME280;4985;49.092;8.542;2022-11-23T13:19:11;97881.00;;;13.77;54.36
9893;BME280;4985;49.092;8.542;2022-11-23T13:21:44;97866.75;;;13.78;54.36
9893;BME280;4985;49.092;8.542;2022-11-23T13:24:25;97868.59;;;13.78;54.36
9893;BME280;4985;49.092;8.542;2022-11-23T13:29:57;97869.63;;;13.77;54.41
9893;BME280;4985;49.092;8.542;2022-11-23T13:32:50;97865.13;;;13.77;54.45
9893;BME280;4985;49.092;8.542;2022-11-23T13:35:46;97865.13;;;13.77;54.42
9893;BME280;4985;49.092;8.542;2022-11-23T13:38:37;97861.47;;;13.78;54.43
9893;BME280;4985;49.092;8.542;2022-11-23T13:44:10;97846.00;;;13.82;54.35
9893;BME280;4985;49.092;8.542;2022-11-23T13:46:37;97843.94;;;13.84;54.30